createdAt,value
2023-01-02T00:00:08.055Z,9.8
2023-01-02T00:05:07.520Z,9.8
2023-01-02T00:10:07.812Z,9.8
2023-01-02T00:15:08.263Z,9.8
2023-01-02T00:20:07.619Z,9.8
2023-01-02T00:25:08.118Z,9.8
2023-01-02T00:30:07.554Z,9.8
2023-01-02T00:35:08.086Z,9.8
2023-01-02T00:40:07.617Z,9.8
2023-01-02T00:45:08.310Z,9.8
2023-01-02T00:50:07.785Z,9.8
2023-01-02T00:55:07.410Z,9.8
2023-01-02T01:00:07.875Z,9.8
2023-01-02T01:05:07.818Z,9.8
2023-01-02T01:10:08.392Z,9.9
2023-01-02T01:15:08.071Z,9.9
2023-01-02T01:20:07.596Z,9.9
2023-01-02T01:25:07.657Z,9.9
2023-01-02T01:30:08.104Z,9.9
2023-01-02T01:35:07.781Z,9.9
2023-01-02T01:40:08.165Z,9.9
2023-01-02T01:45:07.537Z,9.9
2023-01-02T01:50:08.012Z,9.9
2023-01-02T01:55:07.664Z,9.9
2023-01-02T02:00:08.141Z,9.9
2023-01-02T02:05:07.985Z,9.9
2023-01-02T02:10:08.470Z,9.9
2023-01-02T02:15:08.068Z,9.9
2023-01-02T02:20:07.568Z,9.9
2023-01-02T02:25:07.978Z,9.9
2023-01-02T02:30:08.315Z,9.9
2023-01-02T02:35:07.720Z,9.9
2023-01-02T02:40:08.484Z,9.9
2023-01-02T02:45:08.372Z,9.9
2023-01-02T02:50:07.963Z,9.9
2023-01-02T02:55:07.472Z,9.9
2023-01-02T03:00:08.389Z,10
2023-01-02T03:05:07.767Z,10
2023-01-02T03:10:08.104Z,10.1
2023-01-02T03:15:08.294Z,10.1
2023-01-02T03:20:08.095Z,10.2
2023-01-02T03:25:08.579Z,10.2
2023-01-02T03:30:08.197Z,10.2
2023-01-02T03:35:07.596Z,10.2
2023-01-02T03:40:08.431Z,10.3
2023-01-02T03:45:07.698Z,10.3
2023-01-02T03:50:08.459Z,10.3
2023-01-02T03:55:08.453Z,10.3
2023-01-02T04:00:08.299Z,10.4
2023-01-02T04:05:08.085Z,10.4
2023-01-02T04:10:08.328Z,10.6
2023-01-02T04:15:08.145Z,10.6
2023-01-02T04:20:07.846Z,10.7
2023-01-02T04:25:07.560Z,10.7
2023-01-02T04:30:08.046Z,10.8
2023-01-02T04:35:08.103Z,10.8
2023-01-02T04:40:08.124Z,10.9
2023-01-02T04:45:08.188Z,10.9
2023-01-02T04:50:07.995Z,11
2023-01-02T04:55:08.548Z,11
2023-01-02T05:00:08.148Z,11.1
2023-01-02T05:05:08.321Z,11.1
2023-01-02T05:10:08.243Z,11.1
2023-01-02T05:15:07.909Z,11.1
2023-01-02T05:20:08.380Z,11.1
2023-01-02T05:25:08.155Z,11.1
2023-01-02T05:30:07.842Z,11.1
2023-01-02T05:35:07.743Z,11.1
2023-01-02T05:40:07.808Z,11.1
2023-01-02T05:45:07.562Z,11.1
2023-01-02T05:50:08.026Z,11.1
2023-01-02T05:55:07.621Z,11.1
2023-01-02T06:00:08.161Z,11.1
2023-01-02T06:05:07.882Z,11.1
2023-01-02T06:10:08.352Z,11.2
2023-01-02T06:15:08.079Z,11.2
2023-01-02T06:20:11.681Z,11.3
2023-01-02T06:25:07.896Z,11.3
2023-01-02T06:30:08.210Z,11.4
2023-01-02T06:35:07.604Z,11.4
2023-01-02T06:40:08.329Z,11.6
2023-01-02T06:45:08.037Z,11.6
2023-01-02T06:50:08.290Z,11.6
2023-01-02T06:55:07.900Z,11.6
2023-01-02T07:00:08.232Z,11.6
2023-01-02T07:05:07.816Z,11.6
2023-01-02T07:10:08.474Z,11.7
2023-01-02T07:15:07.829Z,11.7
2023-01-02T07:20:07.668Z,11.7
2023-01-02T07:25:08.599Z,11.7
2023-01-02T07:30:07.765Z,11.8
2023-01-02T07:35:08.596Z,11.8
2023-01-02T07:40:08.540Z,11.8
2023-01-02T07:45:07.951Z,11.8
2023-01-02T07:50:08.403Z,11.8
2023-01-02T07:55:08.126Z,11.8
2023-01-02T08:00:08.302Z,11.8
2023-01-02T08:05:07.847Z,11.8
2023-01-02T08:10:08.408Z,11.8
2023-01-02T08:15:08.129Z,11.8
2023-01-02T08:20:08.628Z,11.8
2023-01-02T08:25:07.937Z,11.8
2023-01-02T08:30:08.345Z,11.8
2023-01-02T08:35:08.117Z,11.8
2023-01-02T08:40:07.902Z,11.8
2023-01-02T08:45:08.493Z,11.8
2023-01-02T08:50:07.651Z,11.8
2023-01-02T08:55:08.307Z,11.8
2023-01-02T09:00:08.214Z,11.8
2023-01-02T09:05:08.291Z,11.8
2023-01-02T09:10:08.316Z,11.9
2023-01-02T09:15:08.530Z,11.9
2023-01-02T09:20:08.190Z,11.9
2023-01-02T09:25:07.963Z,11.9
2023-01-02T09:30:08.311Z,12
2023-01-02T09:35:08.300Z,12
2023-01-02T09:40:08.493Z,12.1
2023-01-02T09:45:09.001Z,12.1
2023-01-02T09:50:08.362Z,12.1
2023-01-02T09:55:08.072Z,12.1
2023-01-02T10:00:08.544Z,12.2
2023-01-02T10:05:08.487Z,12.2
2023-01-02T10:10:08.505Z,12.3
2023-01-02T10:15:08.166Z,12.3
2023-01-02T10:20:08.622Z,12.3
2023-01-02T10:25:08.236Z,12.3
2023-01-02T10:30:08.643Z,12.4
2023-01-02T10:35:08.197Z,12.4
2023-01-02T10:40:08.089Z,12.5
2023-01-02T10:45:08.459Z,12.5
2023-01-02T10:50:08.020Z,12.6
2023-01-02T10:55:08.691Z,12.6
2023-01-02T11:00:08.189Z,12.8
2023-01-02T11:05:08.116Z,12.8
2023-01-02T11:10:08.164Z,12.8
2023-01-02T11:15:07.989Z,12.8
2023-01-02T11:20:08.374Z,12.8
2023-01-02T11:25:08.849Z,12.8
2023-01-02T11:30:07.991Z,12.8
2023-01-02T11:35:08.467Z,12.8
2023-01-02T11:40:08.202Z,12.7
2023-01-02T11:45:08.452Z,12.7
2023-01-02T11:50:08.602Z,12.7
2023-01-02T11:55:08.571Z,12.7
2023-01-02T12:00:08.015Z,12.6
2023-01-02T12:05:08.477Z,12.6
2023-01-02T12:10:08.128Z,12.3
2023-01-02T12:15:08.528Z,12.3
2023-01-02T12:20:08.089Z,11.7
2023-01-02T12:25:08.785Z,11.7
2023-01-02T12:30:08.164Z,11.1
2023-01-02T12:35:08.456Z,11.1
2023-01-02T12:40:08.089Z,10.7
2023-01-02T12:45:08.424Z,10.7
2023-01-02T12:50:08.693Z,10.4
2023-01-02T12:55:08.236Z,10.4
2023-01-02T13:00:08.676Z,10.2
2023-01-02T13:05:08.088Z,10.2
2023-01-02T13:10:08.468Z,9.9
2023-01-02T13:15:07.968Z,9.9
2023-01-02T13:20:08.429Z,9.7
2023-01-02T13:25:08.703Z,9.7
2023-01-02T13:30:07.862Z,9.6
2023-01-02T13:35:08.357Z,9.6
2023-01-02T13:40:08.234Z,9.4
2023-01-02T13:45:08.623Z,9.4
2023-01-02T13:50:07.864Z,9.3
2023-01-02T13:55:08.522Z,9.3
2023-01-02T14:00:08.062Z,9.2
2023-01-02T14:05:08.797Z,9.2
2023-01-02T14:10:08.387Z,9.2
2023-01-02T14:15:07.907Z,9.2
2023-01-02T14:20:08.261Z,8.9
2023-01-02T14:25:08.988Z,8.9
2023-01-02T14:30:08.354Z,8.8
2023-01-02T14:35:08.711Z,8.8
2023-01-02T14:40:08.747Z,8.8
2023-01-02T14:45:08.007Z,8.8
2023-01-02T14:50:07.975Z,8.7
2023-01-02T14:55:08.607Z,8.7
2023-01-02T15:00:09.042Z,8.7
2023-01-02T15:05:08.797Z,8.7
2023-01-02T15:10:08.333Z,8.7
2023-01-02T15:15:08.535Z,8.7
2023-01-02T15:20:08.430Z,8.6
2023-01-02T15:25:08.694Z,8.6
2023-01-02T15:30:08.072Z,8.4
2023-01-02T15:35:08.441Z,8.4
2023-01-02T15:40:18.258Z,8.4
2023-01-02T15:45:08.759Z,8.4
2023-01-02T15:50:08.216Z,8.3
2023-01-02T15:55:08.488Z,8.3
2023-01-02T16:00:08.191Z,8.3
2023-01-02T16:05:08.850Z,8.3
2023-01-02T16:10:08.837Z,8.3
2023-01-02T16:15:08.057Z,8.3
2023-01-02T16:20:08.903Z,8.2
2023-01-02T16:25:07.985Z,8.2
2023-01-02T16:30:08.588Z,8.2
2023-01-02T16:35:08.785Z,8.2
2023-01-02T16:40:08.583Z,8.1
2023-01-02T16:45:08.186Z,8.1
2023-01-02T16:50:08.672Z,8.1
2023-01-02T16:55:08.330Z,8.1
2023-01-02T17:00:08.559Z,8.1
2023-01-02T17:05:08.372Z,8.1
2023-01-02T17:10:08.203Z,8.1
2023-01-02T17:15:08.986Z,8.1
2023-01-02T17:20:08.967Z,8.1
2023-01-02T17:25:08.551Z,8.1
2023-01-02T17:30:08.868Z,8.1
2023-01-02T17:35:09.018Z,8.1
2023-01-02T17:40:08.512Z,8.1
2023-01-02T17:45:08.566Z,8.1
2023-01-02T17:50:09.002Z,8.1
2023-01-02T17:55:08.840Z,8.1
2023-01-02T18:00:08.320Z,8.1
2023-01-02T18:05:08.236Z,8.1
2023-01-02T18:10:10.428Z,8.1
2023-01-02T18:15:08.080Z,8.1
2023-01-02T18:20:08.747Z,8.2
2023-01-02T18:25:08.155Z,8.2
2023-01-02T18:30:08.585Z,8.2
2023-01-02T18:35:30.030Z,8.2
2023-01-02T18:40:08.579Z,8.3
2023-01-02T18:45:08.928Z,8.3
2023-01-02T18:50:08.310Z,8.3
2023-01-02T18:55:08.691Z,8.3
2023-01-02T19:00:09.035Z,8.4
2023-01-02T19:05:09.001Z,8.4
2023-01-02T19:10:08.440Z,8.4
2023-01-02T19:15:08.278Z,8.4
2023-01-02T19:20:08.615Z,8.5
2023-01-02T19:25:08.919Z,8.5
2023-01-02T19:30:08.242Z,8.5
2023-01-02T19:35:08.796Z,8.5
2023-01-02T19:40:10.584Z,8.6
2023-01-02T19:45:09.053Z,8.6
2023-01-02T19:50:08.346Z,8.5
2023-01-02T19:55:08.945Z,8.5
2023-01-02T20:00:08.350Z,8.4
2023-01-02T20:05:08.197Z,8.4
2023-01-02T20:10:08.543Z,8.4
2023-01-02T20:15:08.306Z,8.4
2023-01-02T20:20:08.517Z,8.3
2023-01-02T20:25:08.209Z,8.3
2023-01-02T20:30:08.520Z,8.2
2023-01-02T20:35:09.014Z,8.2
2023-01-02T20:40:08.396Z,8
2023-01-02T20:45:08.275Z,8
2023-01-02T20:50:08.531Z,7.9
2023-01-02T20:55:08.646Z,7.9
2023-01-02T21:00:08.641Z,7.8
2023-01-02T21:05:08.341Z,7.8
2023-01-02T21:10:09.180Z,7.7
2023-01-02T21:15:08.687Z,7.7
2023-01-02T21:20:08.895Z,7.5
2023-01-02T21:25:08.551Z,7.5
2023-01-02T21:30:08.290Z,7.4
2023-01-02T21:35:08.943Z,7.4
2023-01-02T21:40:08.803Z,7.3
2023-01-02T21:45:08.691Z,7.3
2023-01-02T21:50:09.039Z,7.1
2023-01-02T21:55:09.194Z,7.1
2023-01-02T22:00:08.613Z,7.1
2023-01-02T22:05:08.164Z,7.1
2023-01-02T22:10:08.533Z,7.1
2023-01-02T22:15:08.561Z,7.1
2023-01-02T22:20:08.964Z,7.1
2023-01-02T22:25:08.393Z,7.1
2023-01-02T22:30:21.716Z,7.2
2023-01-02T22:35:08.290Z,7.2
2023-01-02T22:40:08.801Z,7.2
2023-01-02T22:45:09.255Z,7.2
2023-01-02T22:50:12.155Z,7.1
2023-01-02T22:55:09.039Z,7.1
2023-01-02T23:00:08.370Z,7.1
2023-01-02T23:05:08.211Z,7.1
2023-01-02T23:10:09.171Z,7
2023-01-02T23:15:09.001Z,7
2023-01-02T23:20:08.494Z,6.9
2023-01-02T23:25:08.391Z,6.9
2023-01-02T23:30:08.758Z,6.8
2023-01-02T23:35:08.700Z,6.8
2023-01-02T23:40:09.227Z,6.8
2023-01-02T23:45:08.815Z,6.8
2023-01-02T23:50:08.348Z,6.6
2023-01-02T23:55:10.046Z,6.6
